Latest Weather Observations for Williamson

IDQ60801

Issued at 7:05 pm EST Tuesday 22 July 2014 (issued every 30 minutes, with the page automatically refreshed every 10 minutes)

About weather observations | Map of weather stations | Latest weather observations for QLD | Other Formats
Station Details ID: 033195 Name: WILLIAMSON Lat: -22.47 Lon: 150.18 Height: 27.6 m
Data from the previous 72 hours. | See also: Recent months at Williamson
Date/Time
EST
Temp
°C
App
Temp
°C
Dew
Point
Rel
Hum
%
Delta-T
°C
Wind Press
QNH
hPa
Press
MSL
hPa
Rain
since 9 am
mm
Dir
 
Spd
km/h
Gust
km/h
Spd
kts
Gust
kts
22/07:00pm 15.3 15.5 13.0 86 1.3 ENE 4 7 2 4 1018.7 - 0.0
22/06:30pm 15.6 15.4 12.9 84 1.5 NNE 6 7 3 4 1018.5 - 0.0
22/06:00pm 17.1 18.1 13.2 78 2.2 CALM 0 2 0 1 1018.0 1017.9 0.0
22/05:30pm 19.1 19.0 13.9 72 3.0 NNE 7 13 4 7 1017.7 - 0.0
22/05:00pm 20.5 20.3 13.5 64 4.0 NNE 7 13 4 7 1017.5 - 0.0
22/04:30pm 21.5 20.4 13.2 59 4.8 NE 11 17 6 9 1017.3 - 0.0
22/04:00pm 23.2 22.1 9.9 43 7.3 N 6 15 3 8 1017.0 - 0.0
22/03:30pm 24.2 21.7 6.5 32 9.1 SE 9 17 5 9 1016.9 - 0.0
22/03:00pm 24.2 21.5 5.5 30 9.5 SE 9 17 5 9 1016.8 1016.7 0.0
22/02:30pm 24.0 20.3 4.4 28 9.7 SE 13 20 7 11 1017.0 - 0.0
22/02:00pm 24.2 20.6 5.1 29 9.6 S 13 20 7 11 1017.3 - 0.0
22/01:30pm 23.8 20.8 6.1 32 9.0 SE 11 19 6 10 1017.7 - 0.0
22/01:00pm 23.7 20.9 6.9 34 8.7 S 11 19 6 10 1018.2 - 0.0
22/12:30pm 23.4 20.3 7.1 35 8.5 SE 13 20 7 11 1018.8 - 0.0
22/12:00pm 22.7 18.8 7.3 37 8.0 S 17 37 9 20 1019.5 1019.5 0.0
22/11:30am 22.2 19.3 9.7 45 6.8 S 15 22 8 12 1020.1 - 0.0
22/11:00am 22.2 20.2 11.6 51 5.9 SSW 13 19 7 10 1020.7 - 0.0
22/10:30am 20.9 19.7 11.5 55 5.2 S 9 13 5 7 1021.1 - 0.0
22/10:00am 19.9 18.8 11.9 60 4.4 S 9 15 5 8 1021.5 - 0.0
22/09:30am 18.8 17.9 12.5 67 3.5 S 9 19 5 10 1021.7 - 0.0
22/09:00am 17.4 16.5 12.7 74 2.6 S 9 15 5 8 1021.7 1021.7 0.0
22/08:30am 13.3 12.9 9.9 80 1.7 SSE 2 7 1 4 1021.7 - 0.0
22/08:00am 10.1 9.9 9.0 93 0.5 CALM 0 0 0 0 1021.6 - 0.0
22/07:30am 6.2 5.3 5.9 98 0.1 CALM 0 0 0 0 1021.4 - 0.0
22/07:00am 4.0 2.6 3.7 98 0.1 CALM 0 0 0 0 1021.0 - 0.0
22/06:30am 3.8 2.4 3.4 97 0.2 CALM 0 0 0 0 1020.5 - 0.0
22/06:00am 3.9 2.5 3.5 97 0.2 SSE 0 0 0 0 1020.3 1020.3 0.0
22/05:30am 4.0 2.6 3.6 97 0.2 CALM 0 0 0 0 1020.2 - 0.0
22/05:00am 4.3 3.0 3.9 97 0.2 CALM 0 0 0 0 1020.0 - 0.0
22/04:30am 4.3 2.9 3.7 96 0.2 CALM 0 0 0 0 1019.8 - 0.0
22/04:00am 4.5 3.2 3.9 96 0.3 CALM 0 0 0 0 1019.6 - 0.0
22/03:30am 4.8 2.4 4.2 96 0.3 SE 6 7 3 4 1019.7 - 0.0
22/03:00am 5.0 3.8 4.4 96 0.3 CALM 0 0 0 0 1019.7 1019.7 0.0
22/02:30am 5.1 3.9 4.5 96 0.3 CALM 0 0 0 0 1020.0 - 0.0
22/02:00am 5.4 4.2 4.8 96 0.3 CALM 0 0 0 0 1020.1 - 0.0
22/01:30am 5.6 4.5 5.0 96 0.3 CALM 0 0 0 0 1020.3 - 0.0
22/01:00am 5.8 4.7 5.2 96 0.3 CALM 0 0 0 0 1020.7 - 0.0
22/12:30am 6.2 5.2 5.5 95 0.3 CALM 0 0 0 0 1020.8 - 0.0
22/12:00am 6.2 5.1 5.3 94 0.4 E 0 0 0 0 1020.9 1020.9 0.0
 
Date/Time
EST
Temp
°C
App
Temp
°C
Dew
Point
Rel
Hum
%
Delta-T
°C
Wind Press
QNH
hPa
Press
MSL
hPa
Rain
since 9 am
mm
Dir
 
Spd
km/h
Gust
km/h
Spd
kts
Gust
kts
21/11:30pm 6.9 5.9 5.8 93 0.5 CALM 0 0 0 0 1021.0 - 0.0
21/11:00pm 7.2 6.3 6.1 93 0.5 CALM 0 0 0 0 1021.3 - 0.0
21/10:30pm 8.1 7.3 6.7 91 0.6 CALM 0 0 0 0 1021.3 - 0.0
21/10:00pm 8.7 8.0 7.0 89 0.8 CALM 0 0 0 0 1021.5 - 0.0
21/09:30pm 9.4 8.8 7.2 86 1.0 CALM 0 0 0 0 1021.4 - 0.0
21/09:00pm 10.1 9.5 7.3 83 1.3 CALM 0 0 0 0 1021.2 1021.2 0.0
21/08:30pm 10.9 10.1 8.0 82 1.4 ENE 2 6 1 3 1021.0 - 0.0
21/08:00pm 12.5 11.8 8.6 77 1.9 NE 2 7 1 4 1020.9 - 0.0
21/07:30pm 13.8 12.3 8.4 70 2.7 NE 6 9 3 5 1020.6 - 0.0
21/07:00pm 15.8 14.2 8.8 63 3.6 ENE 7 9 4 5 1020.3 - 0.0
21/06:30pm 16.9 14.9 8.8 59 4.2 ENE 9 13 5 7 1020.0 - 0.0
21/06:00pm 17.5 15.6 7.5 52 5.0 NE 7 11 4 6 1019.8 1019.8 0.0
21/05:30pm 19.0 16.8 6.1 43 6.4 NE 7 13 4 7 1019.4 - 0.0
21/05:00pm 20.4 17.4 6.0 39 7.2 E 11 19 6 10 1019.1 - 0.0
21/04:30pm 21.6 18.5 5.5 35 8.0 NE 11 19 6 10 1018.8 - 0.0
21/04:00pm 22.2 18.6 5.2 33 8.5 NE 13 19 7 10 1018.5 - 0.0
21/03:30pm 23.1 19.8 6.4 34 8.5 NE 13 20 7 11 1018.3 - 0.0
21/03:00pm 23.2 20.2 6.0 33 8.7 NE 11 19 6 10 1018.2 1018.1 0.0
21/02:30pm 23.5 20.5 5.9 32 8.9 N 11 17 6 9 1018.2 - 0.0
21/02:00pm 23.7 21.0 5.6 31 9.2 W 9 20 5 11 1018.2 - 0.0
21/01:30pm 23.6 21.1 5.0 30 9.3 WNW 7 15 4 8 1018.6 - 0.0
21/01:00pm 22.8 19.9 4.8 31 8.9 W 9 15 5 8 1019.0 - 0.0
21/12:30pm 22.5 20.1 5.4 33 8.6 SSE 7 15 4 8 1019.5 - 0.0
21/12:00pm 21.9 19.2 5.8 35 8.1 W 9 17 5 9 1020.2 1020.2 0.0
21/11:30am 21.6 19.4 5.5 35 8.0 ENE 6 17 3 9 1020.9 - 0.0
21/11:00am 21.0 18.3 5.8 37 7.6 SSW 9 13 5 7 1021.4 - 0.0
21/10:30am 20.1 17.4 5.7 39 7.1 SSW 9 17 5 9 1021.8 - 0.0
21/10:00am 19.2 16.3 6.3 43 6.4 S 11 17 6 9 1022.1 - 0.0
21/09:30am 18.0 15.2 7.1 49 5.5 S 11 17 6 9 1022.4 - 0.0
21/09:00am 16.2 12.8 5.8 50 5.0 S 13 19 7 10 1022.5 1022.5 0.0
21/08:30am 14.7 13.3 8.9 68 3.0 SSW 6 15 3 8 1022.3 - 0.0
21/08:00am 9.6 9.2 8.4 92 0.6 CALM 0 0 0 0 1022.0 - 0.0
21/07:30am 5.3 4.2 5.0 98 0.1 CALM 0 0 0 0 1021.9 - 0.0
21/07:00am 3.8 2.4 3.5 98 0.1 CALM 0 0 0 0 1021.5 - 0.0
21/06:30am 3.3 1.8 2.9 97 0.2 CALM 0 0 0 0 1021.3 - 0.0
21/06:00am 3.4 1.9 3.0 97 0.2 CALM 0 0 0 0 1021.1 1021.1 0.0
21/05:30am 3.7 2.3 3.3 97 0.2 CALM 0 0 0 0 1020.7 - 0.0
21/05:00am 3.9 2.5 3.5 97 0.2 CALM 0 0 0 0 1020.5 - 0.0
21/04:30am 4.1 2.7 3.5 96 0.2 CALM 0 0 0 0 1020.5 - 0.0
21/04:00am 4.1 2.7 3.5 96 0.2 CALM 0 0 0 0 1020.5 - 0.0
21/03:30am 4.4 3.0 3.8 96 0.2 CALM 0 0 0 0 1020.4 - 0.0
21/03:00am 4.5 3.2 3.9 96 0.2 CALM 0 0 0 0 1020.4 1020.4 0.0
21/02:30am 4.8 3.5 4.1 95 0.3 CALM 0 0 0 0 1020.8 - 0.0
21/02:00am 4.8 3.5 4.1 95 0.3 CALM 0 0 0 0 1021.0 - 0.0
21/01:30am 5.3 3.3 4.6 95 0.3 SSE 4 7 2 4 1021.2 - 0.0
21/01:00am 5.7 3.4 5.0 95 0.3 SSE 6 9 3 5 1021.3 - 0.0
21/12:30am 5.6 4.5 4.9 95 0.3 CALM 0 0 0 0 1021.4 - 0.0
21/12:00am 5.6 4.5 4.9 95 0.3 CALM 0 0 0 0 1021.4 1021.4 0.0
 
Date/Time
EST
Temp
°C
App
Temp
°C
Dew
Point
Rel
Hum
%
Delta-T
°C
Wind Press
QNH
hPa
Press
MSL
hPa
Rain
since 9 am
mm
Dir
 
Spd
km/h
Gust
km/h
Spd
kts
Gust
kts
20/11:30pm 5.7 4.6 5.0 95 0.3 CALM 0 0 0 0 1021.6 - 0.0
20/11:00pm 5.8 4.7 4.9 94 0.4 CALM 0 0 0 0 1021.8 - 0.0
20/10:30pm 6.5 5.5 5.6 94 0.4 CALM 0 0 0 0 1021.8 - 0.0
20/10:00pm 6.8 5.8 5.6 92 0.5 CALM 0 0 0 0 1022.0 - 0.0
20/09:30pm 7.0 6.0 5.5 90 0.7 CALM 0 0 0 0 1021.9 - 0.0
20/09:00pm 7.6 6.6 5.7 88 0.8 CALM 0 0 0 0 1022.0 1022.0 0.0
20/08:30pm 7.9 6.9 5.7 86 1.0 CALM 0 0 0 0 1021.7 - 0.0
20/08:00pm 8.6 7.7 5.9 83 1.2 CALM 0 0 0 0 1021.6 - 0.0
20/07:30pm 9.6 8.9 6.9 83 1.3 CALM 0 0 0 0 1021.4 - 0.0
20/07:00pm 10.9 10.2 7.0 77 1.9 CALM 0 0 0 0 1021.1 - 0.0
20/06:30pm 12.7 11.2 7.0 68 2.7 NE 4 6 2 3 1020.7 - 0.0
20/06:00pm 14.6 12.7 6.9 60 3.7 NE 6 9 3 5 1020.1 1020.1 0.0
20/05:30pm 16.9 14.4 6.7 51 5.0 ENE 9 15 5 8 1019.8 - 0.0
20/05:00pm 18.4 15.6 6.9 47 5.8 NE 11 17 6 9 1019.5 - 0.0
20/04:30pm 19.4 16.1 6.5 43 6.5 NE 13 19 7 10 1019.2 - 0.0
20/04:00pm 20.3 17.6 5.5 38 7.3 NNE 9 19 5 10 1019.1 - 0.0
20/03:30pm 20.1 16.4 4.2 35 7.6 NNE 13 19 7 10 1018.8 - 0.0
20/03:00pm 20.9 18.0 4.5 34 8.0 NNE 9 17 5 9 1018.8 1018.8 0.0
20/02:30pm 20.3 17.1 3.1 32 8.1 N 9 17 5 9 1018.8 - 0.0
20/02:00pm 21.2 18.0 3.0 30 8.6 SSE 9 22 5 12 1019.1 - 0.0
20/01:30pm 20.7 17.3 -0.6 24 9.4 SSW 7 13 4 7 1019.4 - 0.0
20/01:00pm 19.8 16.5 -1.3 24 9.1 NW 6 9 3 5 1019.7 - 0.0
20/12:30pm 19.3 15.5 -0.7 26 8.7 SSW 9 15 5 8 1020.2 - 0.0
20/12:00pm 18.9 14.7 -1.0 26 8.5 WSW 11 17 6 9 1020.7 1020.7 0.0
20/11:30am 18.2 14.4 -0.6 28 8.1 SSW 9 19 5 10 1021.3 - 0.0
20/11:00am 17.4 13.7 -0.3 30 7.6 S 9 17 5 9 1021.5 - 0.0
20/10:30am 16.7 12.6 -0.1 32 7.2 S 11 19 6 10 1021.7 - 0.0
20/10:00am 15.8 11.0 0.0 34 6.7 S 15 20 8 11 1022.0 - 0.0
20/09:30am 15.1 10.2 -0.2 35 6.4 S 15 20 8 11 1022.0 - 0.0
20/09:00am 13.4 8.5 -0.6 38 5.7 S 15 24 8 13 1022.1 1022.1 0.0
20/08:30am 12.9 7.2 -0.7 39 5.5 S 19 26 10 14 1021.9 - 0.0
20/08:00am 11.8 7.2 -1.0 41 5.1 S 13 19 7 10 1021.8 - 0.0
20/07:30am 10.3 5.7 -0.8 46 4.4 S 13 19 7 10 1021.5 - 0.0
20/07:00am 8.4 4.2 -0.9 52 3.6 S 11 15 6 8 1021.1 - 0.0
20/06:30am 8.1 4.6 -1.4 51 3.6 S 7 11 4 6 1021.0 - 0.0
20/06:00am 8.7 5.2 -1.7 48 3.9 S 7 11 4 6 1020.6 1020.6 0.0
20/05:30am 9.1 4.8 -1.6 47 4.1 S 11 15 6 8 1020.4 - 0.0
20/05:00am 9.3 4.6 -1.7 46 4.2 S 13 19 7 10 1020.1 - 0.0
20/04:30am 9.3 4.3 -1.4 47 4.1 S 15 20 8 11 1020.1 - 0.0
20/04:00am 9.5 4.8 -1.5 46 4.2 S 13 20 7 11 1020.2 - 0.0
20/03:30am 9.6 4.6 -1.1 47 4.2 S 15 20 8 11 1020.3 - 0.0
20/03:00am 8.6 4.4 -1.2 50 3.8 S 11 15 6 8 1020.3 1020.3 0.0
20/02:30am 7.5 2.9 -0.9 55 3.2 S 13 17 7 9 1020.6 - 0.0
20/02:00am 9.8 5.8 -1.9 44 4.5 S 9 11 5 6 1020.7 - 0.0
20/01:30am 9.9 5.6 -1.8 44 4.5 S 11 15 6 8 1020.7 - 0.0
20/01:00am 10.2 6.0 -1.2 45 4.5 S 11 17 6 9 1020.7 - 0.0
20/12:30am 10.2 6.4 -0.6 47 4.3 SSE 9 15 5 8 1020.7 - 0.0
20/12:00am 8.3 4.0 1.0 60 2.9 S 13 17 7 9 1021.2 1021.2 0.0
 
Date/Time
EST
Temp
°C
App
Temp
°C
Dew
Point
Rel
Hum
%
Delta-T
°C
Wind Press
QNH
hPa
Press
MSL
hPa
Rain
since 9 am
mm
Dir
 
Spd
km/h
Gust
km/h
Spd
kts
Gust
kts
19/11:58pm 8.2 3.9 1.1 61 2.9 S 13 17 7 9 1021.2 - 0.0
19/11:30pm 3.0 0.9 2.0 93 0.4 SE 2 7 1 4 1020.9 - 0.0
19/11:00pm 3.2 0.8 2.2 93 0.4 ESE 4 9 2 5 1021.2 - 0.0
19/10:30pm 3.3 1.6 2.1 92 0.5 CALM 0 0 0 0 1021.2 - 0.0
19/10:00pm 3.5 1.8 1.9 89 0.6 CALM 0 0 0 0 1021.1 - 0.0
19/09:30pm 3.8 2.1 1.8 87 0.8 CALM 0 0 0 0 1021.0 - 0.0
19/09:00pm 4.3 2.6 1.8 84 1.0 CALM 0 0 0 0 1020.9 1020.9 0.0
19/08:30pm 5.3 3.0 2.8 84 1.0 SSW 4 7 2 4 1020.6 - 0.0
19/08:00pm 6.0 4.2 1.0 70 2.0 CALM 0 0 0 0 1020.5 - 0.0
19/07:30pm 6.8 5.1 1.7 70 2.1 CALM 0 0 0 0 1020.2 - 0.0

Other Formats:

Comma delimited format used in spreadsheet applications
http://www.bom.gov.au/fwo/IDQ60801/IDQ60801.95370.axf

JavaScript Object Notation format (JSON) in row-major order
http://www.bom.gov.au/fwo/IDQ60801/IDQ60801.95370.json